sensor_id;sensor_type;location;lat;lon;timestamp;temperature;humidity
35593;DHT22;64447;52.140;5.602;2023-04-15T00:01:20;10.40;77.20
35593;DHT22;64447;52.140;5.602;2023-04-15T00:03:47;10.40;77.20
35593;DHT22;64447;52.140;5.602;2023-04-15T00:06:12;10.50;78.00
35593;DHT22;64447;52.140;5.602;2023-04-15T00:08:38;10.50;78.60
35593;DHT22;64447;52.140;5.602;2023-04-15T00:11:04;10.60;79.30
35593;DHT22;64447;52.140;5.602;2023-04-15T00:13:31;10.50;78.30
35593;DHT22;64447;52.140;5.602;2023-04-15T00:16:00;10.50;78.00
35593;DHT22;64447;52.140;5.602;2023-04-15T00:18:25;10.50;77.80
35593;DHT22;64447;52.140;5.602;2023-04-15T00:20:51;10.40;76.80
35593;DHT22;64447;52.140;5.602;2023-04-15T00:23:17;10.30;77.10
35593;DHT22;64447;52.140;5.602;2023-04-15T00:29:05;10.00;78.20
35593;DHT22;64447;52.140;5.602;2023-04-15T00:31:30;9.90;78.60
35593;DHT22;64447;52.140;5.602;2023-04-15T00:33:56;9.80;79.00
35593;DHT22;64447;52.140;5.602;2023-04-15T00:36:22;9.90;80.00
35593;DHT22;64447;52.140;5.602;2023-04-15T00:38:48;9.90;80.10
35593;DHT22;64447;52.140;5.602;2023-04-15T00:41:14;10.00;79.90
35593;DHT22;64447;52.140;5.602;2023-04-15T00:43:40;9.90;79.30
35593;DHT22;64447;52.140;5.602;2023-04-15T00:46:06;9.90;79.20
35593;DHT22;64447;52.140;5.602;2023-04-15T00:48:32;9.90;79.40
35593;DHT22;64447;52.140;5.602;2023-04-15T00:50:58;9.90;79.10
35593;DHT22;64447;52.140;5.602;2023-04-15T00:53:23;9.90;79.40
35593;DHT22;64447;52.140;5.602;2023-04-15T00:59:11;9.70;80.10
35593;DHT22;64447;52.140;5.602;2023-04-15T01:01:36;9.70;80.40
35593;DHT22;64447;52.140;5.602;2023-04-15T01:04:03;9.70;81.20
35593;DHT22;64447;52.140;5.602;2023-04-15T01:06:30;9.80;81.90
35593;DHT22;64447;52.140;5.602;2023-04-15T01:08:57;9.80;81.30
35593;DHT22;64447;52.140;5.602;2023-04-15T01:11:24;9.90;81.70
35593;DHT22;64447;52.140;5.602;2023-04-15T01:13:51;9.80;81.20
35593;DHT22;64447;52.140;5.602;2023-04-15T01:16:18;9.70;80.70
35593;DHT22;64447;52.140;5.602;2023-04-15T01:18:43;9.60;81.50
35593;DHT22;64447;52.140;5.602;2023-04-15T01:21:09;9.30;82.50
35593;DHT22;64447;52.140;5.602;2023-04-15T01:23:36;9.20;83.30
35593;DHT22;64447;52.140;5.602;2023-04-15T01:29:24;9.40;83.20
35593;DHT22;64447;52.140;5.602;2023-04-15T01:31:54;9.40;83.00
35593;DHT22;64447;52.140;5.602;2023-04-15T01:34:20;9.40;83.00
35593;DHT22;64447;52.140;5.602;2023-04-15T01:36:46;9.50;83.30
35593;DHT22;64447;52.140;5.602;2023-04-15T01:39:12;9.40;83.70
35593;DHT22;64447;52.140;5.602;2023-04-15T01:41:38;9.40;83.30
35593;DHT22;64447;52.140;5.602;2023-04-15T01:44:04;9.30;83.70
35593;DHT22;64447;52.140;5.602;2023-04-15T01:46:31;9.40;83.80
35593;DHT22;64447;52.140;5.602;2023-04-15T01:48:57;9.50;84.50
35593;DHT22;64447;52.140;5.602;2023-04-15T01:51:22;9.50;83.80
35593;DHT22;64447;52.140;5.602;2023-04-15T01:53:48;9.40;84.40
35593;DHT22;64447;52.140;5.602;2023-04-15T01:59:35;9.40;83.90
35593;DHT22;64447;52.140;5.602;2023-04-15T02:02:01;9.30;83.80
35593;DHT22;64447;52.140;5.602;2023-04-15T02:06:53;9.10;84.40
35593;DHT22;64447;52.140;5.602;2023-04-15T02:09:18;9.00;85.90
35593;DHT22;64447;52.140;5.602;2023-04-15T02:11:44;8.90;86.10
35593;DHT22;64447;52.140;5.602;2023-04-15T02:14:10;8.80;86.80
35593;DHT22;64447;52.140;5.602;2023-04-15T02:16:36;8.90;87.00
35593;DHT22;64447;52.140;5.602;2023-04-15T02:19:01;8.90;87.20
35593;DHT22;64447;52.140;5.602;2023-04-15T02:21:28;9.00;87.10
35593;DHT22;64447;52.140;5.602;2023-04-15T02:23:55;8.90;87.70
35593;DHT22;64447;52.140;5.602;2023-04-15T02:29:44;8.70;88.60
35593;DHT22;64447;52.140;5.602;2023-04-15T02:32:12;8.50;90.00
35593;DHT22;64447;52.140;5.602;2023-04-15T02:34:39;8.20;90.90
35593;DHT22;64447;52.140;5.602;2023-04-15T02:37:07;8.20;91.40
35593;DHT22;64447;52.140;5.602;2023-04-15T02:39:33;8.00;92.00
35593;DHT22;64447;52.140;5.602;2023-04-15T02:41:59;8.10;92.10
35593;DHT22;64447;52.140;5.602;2023-04-15T02:44:25;8.10;92.20
35593;DHT22;64447;52.140;5.602;2023-04-15T02:46:51;8.10;92.30
35593;DHT22;64447;52.140;5.602;2023-04-15T02:49:19;8.20;92.50
35593;DHT22;64447;52.140;5.602;2023-04-15T02:51:45;7.90;93.10
35593;DHT22;64447;52.140;5.602;2023-04-15T02:54:18;7.80;93.60
35593;DHT22;64447;52.140;5.602;2023-04-15T02:56:44;7.70;94.10
35593;DHT22;64447;52.140;5.602;2023-04-15T02:59:10;7.40;94.80
35593;DHT22;64447;52.140;5.602;2023-04-15T03:01:36;7.50;95.40
35593;DHT22;64447;52.140;5.602;2023-04-15T03:04:02;7.20;96.10
35593;DHT22;64447;52.140;5.602;2023-04-15T03:06:27;7.00;96.70
35593;DHT22;64447;52.140;5.602;2023-04-15T03:08:53;7.00;97.20
35593;DHT22;64447;52.140;5.602;2023-04-15T03:14:40;7.10;97.90
35593;DHT22;64447;52.140;5.602;2023-04-15T03:17:06;7.20;97.50
35593;DHT22;64447;52.140;5.602;2023-04-15T03:19:32;7.30;97.30
35593;DHT22;64447;52.140;5.602;2023-04-15T03:21:57;7.40;97.10
35593;DHT22;64447;52.140;5.602;2023-04-15T03:24:23;7.40;97.20
35593;DHT22;64447;52.140;5.602;2023-04-15T03:26:49;7.40;97.00
35593;DHT22;64447;52.140;5.602;2023-04-15T03:29:15;7.50;97.00
35593;DHT22;64447;52.140;5.602;2023-04-15T03:31:40;7.60;96.60
35593;DHT22;64447;52.140;5.602;2023-04-15T03:34:06;7.70;96.30
35593;DHT22;64447;52.140;5.602;2023-04-15T03:36:32;7.80;96.40
35593;DHT22;64447;52.140;5.602;2023-04-15T03:38:58;7.90;96.00
35593;DHT22;64447;52.140;5.602;2023-04-15T03:44:45;7.70;96.10
35593;DHT22;64447;52.140;5.602;2023-04-15T03:47:11;7.30;97.30
35593;DHT22;64447;52.140;5.602;2023-04-15T03:49:37;7.30;97.60
35593;DHT22;64447;52.140;5.602;2023-04-15T03:52:02;7.30;97.60
35593;DHT22;64447;52.140;5.602;2023-04-15T03:54:28;7.10;98.10
35593;DHT22;64447;52.140;5.602;2023-04-15T03:56:53;7.20;98.30
35593;DHT22;64447;52.140;5.602;2023-04-15T03:59:19;7.20;98.40
35593;DHT22;64447;52.140;5.602;2023-04-15T04:01:44;7.10;98.60
35593;DHT22;64447;52.140;5.602;2023-04-15T04:04:10;7.50;98.60
35593;DHT22;64447;52.140;5.602;2023-04-15T04:06:36;7.20;98.70
35593;DHT22;64447;52.140;5.602;2023-04-15T04:09:01;7.10;98.70
35593;DHT22;64447;52.140;5.602;2023-04-15T04:14:49;7.10;98.90
35593;DHT22;64447;52.140;5.602;2023-04-15T04:17:14;7.00;99.30
35593;DHT22;64447;52.140;5.602;2023-04-15T04:19:40;7.00;99.30
35593;DHT22;64447;52.140;5.602;2023-04-15T04:22:06;7.00;99.60
35593;DHT22;64447;52.140;5.602;2023-04-15T04:24:31;7.00;99.60
35593;DHT22;64447;52.140;5.602;2023-04-15T04:30:19;7.10;99.60
35593;DHT22;64447;52.140;5.602;2023-04-15T04:32:44;6.80;99.90
35593;DHT22;64447;52.140;5.602;2023-04-15T04:35:10;6.70;99.90
35593;DHT22;64447;52.140;5.602;2023-04-15T04:37:36;6.70;99.90
35593;DHT22;64447;52.140;5.602;2023-04-15T04:40:02;6.60;99.90
35593;DHT22;64447;52.140;5.602;2023-04-15T04:42:27;6.80;99.90
35593;DHT22;64447;52.140;5.602;2023-04-15T04:44:53;6.90;99.90
35593;DHT22;64447;52.140;5.602;2023-04-15T04:47:19;7.30;99.90
35593;DHT22;64447;52.140;5.602;2023-04-15T04:49:44;7.10;99.90
35593;DHT22;64447;52.140;5.602;2023-04-15T04:52:10;6.90;99.90
35593;DHT22;64447;52.140;5.602;2023-04-15T04:54:36;6.80;99.90
35593;DHT22;64447;52.140;5.602;2023-04-15T05:00:23;6.80;99.90
35593;DHT22;64447;52.140;5.602;2023-04-15T05:02:48;6.90;99.90
35593;DHT22;64447;52.140;5.602;2023-04-15T05:05:14;6.80;99.90
35593;DHT22;64447;52.140;5.602;2023-04-15T05:07:40;6.60;99.90
35593;DHT22;64447;52.140;5.602;2023-04-15T05:10:07;6.60;99.90
35593;DHT22;64447;52.140;5.602;2023-04-15T05:12:33;6.60;99.90
35593;DHT22;64447;52.140;5.602;2023-04-15T05:14:59;6.50;99.90
35593;DHT22;64447;52.140;5.602;2023-04-15T05:17:25;6.60;99.90
35593;DHT22;64447;52.140;5.602;2023-04-15T05:19:50;6.70;99.90
35593;DHT22;64447;52.140;5.602;2023-04-15T05:22:18;6.70;99.90
35593;DHT22;64447;52.140;5.602;2023-04-15T05:24:43;6.60;99.90
35593;DHT22;64447;52.140;5.602;2023-04-15T05:30:49;6.70;99.90
35593;DHT22;64447;52.140;5.602;2023-04-15T05:33:15;6.60;99.90
35593;DHT22;64447;52.140;5.602;2023-04-15T05:35:41;6.80;99.90
35593;DHT22;64447;52.140;5.602;2023-04-15T05:38:07;6.80;99.90
35593;DHT22;64447;52.140;5.602;2023-04-15T05:40:33;6.90;99.90
35593;DHT22;64447;52.140;5.602;2023-04-15T05:42:58;7.00;99.90
35593;DHT22;64447;52.140;5.602;2023-04-15T05:45:24;6.90;99.90
35593;DHT22;64447;52.140;5.602;2023-04-15T05:47:49;6.80;99.90
35593;DHT22;64447;52.140;5.602;2023-04-15T05:50:18;6.80;99.90
35593;DHT22;64447;52.140;5.602;2023-04-15T05:52:44;6.70;99.90
35593;DHT22;64447;52.140;5.602;2023-04-15T05:55:10;6.70;99.90
35593;DHT22;64447;52.140;5.602;2023-04-15T05:57:37;6.90;99.90
35593;DHT22;64447;52.140;5.602;2023-04-15T06:00:03;7.10;99.90
35593;DHT22;64447;52.140;5.602;2023-04-15T06:02:29;7.10;99.90
35593;DHT22;64447;52.140;5.602;2023-04-15T06:04:56;7.10;99.90
35593;DHT22;64447;52.140;5.602;2023-04-15T06:07:22;7.20;99.90
35593;DHT22;64447;52.140;5.602;2023-04-15T06:09:48;7.30;99.90
35593;DHT22;64447;52.140;5.602;2023-04-15T06:15:36;7.50;99.90
35593;DHT22;64447;52.140;5.602;2023-04-15T06:18:05;7.50;99.90
35593;DHT22;64447;52.140;5.602;2023-04-15T06:20:31;7.50;99.90
35593;DHT22;64447;52.140;5.602;2023-04-15T06:22:56;7.50;99.90
35593;DHT22;64447;52.140;5.602;2023-04-15T06:25:22;8.10;99.90
35593;DHT22;64447;52.140;5.602;2023-04-15T06:27:48;7.80;99.90
35593;DHT22;64447;52.140;5.602;2023-04-15T06:30:14;8.00;99.90
35593;DHT22;64447;52.140;5.602;2023-04-15T06:32:39;8.10;99.90
35593;DHT22;64447;52.140;5.602;2023-04-15T06:35:05;8.10;99.90
35593;DHT22;64447;52.140;5.602;2023-04-15T06:37:31;8.00;99.90
35593;DHT22;64447;52.140;5.602;2023-04-15T06:46:21;8.20;99.90
35593;DHT22;64447;52.140;5.602;2023-04-15T06:48:47;8.30;99.90
35593;DHT22;64447;52.140;5.602;2023-04-15T06:51:14;8.40;99.90
35593;DHT22;64447;52.140;5.602;2023-04-15T06:53:40;8.50;99.90
35593;DHT22;64447;52.140;5.602;2023-04-15T06:56:08;8.60;99.90
35593;DHT22;64447;52.140;5.602;2023-04-15T06:58:34;8.60;99.90
35593;DHT22;64447;52.140;5.602;2023-04-15T07:01:00;8.60;99.90
35593;DHT22;64447;52.140;5.602;2023-04-15T07:03:25;8.70;99.90
35593;DHT22;64447;52.140;5.602;2023-04-15T07:05:51;8.60;99.90
35593;DHT22;64447;52.140;5.602;2023-04-15T07:08:18;8.60;99.90
35593;DHT22;64447;52.140;5.602;2023-04-15T07:10:45;8.70;99.90
35593;DHT22;64447;52.140;5.602;2023-04-15T07:13:11;8.90;99.90
35593;DHT22;64447;52.140;5.602;2023-04-15T07:15:37;8.80;99.90
35593;DHT22;64447;52.140;5.602;2023-04-15T07:18:03;9.00;99.90
35593;DHT22;64447;52.140;5.602;2023-04-15T07:20:28;9.00;99.90
35593;DHT22;64447;52.140;5.602;2023-04-15T07:22:54;9.00;99.90
35593;DHT22;64447;52.140;5.602;2023-04-15T07:25:20;9.10;99.90
35593;DHT22;64447;52.140;5.602;2023-04-15T07:27:45;9.20;99.90
35593;DHT22;64447;52.140;5.602;2023-04-15T07:30:12;9.30;99.90
35593;DHT22;64447;52.140;5.602;2023-04-15T07:32:37;9.30;99.90
35593;DHT22;64447;52.140;5.602;2023-04-15T07:35:03;9.40;99.90
35593;DHT22;64447;52.140;5.602;2023-04-15T07:37:29;9.40;99.40
35593;DHT22;64447;52.140;5.602;2023-04-15T07:39:55;9.40;99.30
35593;DHT22;64447;52.140;5.602;2023-04-15T07:45:42;9.40;98.50
35593;DHT22;64447;52.140;5.602;2023-04-15T07:48:08;9.30;98.20
35593;DHT22;64447;52.140;5.602;2023-04-15T07:50:33;9.30;98.40
35593;DHT22;64447;52.140;5.602;2023-04-15T07:52:59;9.40;98.90
35593;DHT22;64447;52.140;5.602;2023-04-15T07:55:25;9.40;98.30
35593;DHT22;64447;52.140;5.602;2023-04-15T07:57:50;9.40;98.60
35593;DHT22;64447;52.140;5.602;2023-04-15T08:00:16;9.40;98.60
35593;DHT22;64447;52.140;5.602;2023-04-15T08:02:42;9.60;98.60
35593;DHT22;64447;52.140;5.602;2023-04-15T08:05:09;9.70;98.10
35593;DHT22;64447;52.140;5.602;2023-04-15T08:07:35;9.70;98.20
35593;DHT22;64447;52.140;5.602;2023-04-15T08:10:01;9.80;98.20
35593;DHT22;64447;52.140;5.602;2023-04-15T08:16:15;10.00;97.20
35593;DHT22;64447;52.140;5.602;2023-04-15T08:18:38;10.10;96.60
35593;DHT22;64447;52.140;5.602;2023-04-15T08:21:04;10.10;96.30
35593;DHT22;64447;52.140;5.602;2023-04-15T08:23:30;10.10;96.20
35593;DHT22;64447;52.140;5.602;2023-04-15T08:25:57;10.20;96.30
35593;DHT22;64447;52.140;5.602;2023-04-15T08:28:22;10.30;96.30
35593;DHT22;64447;52.140;5.602;2023-04-15T08:30:48;10.40;96.20
35593;DHT22;64447;52.140;5.602;2023-04-15T08:33:14;10.20;95.20
35593;DHT22;64447;52.140;5.602;2023-04-15T08:35:39;10.30;96.20
35593;DHT22;64447;52.140;5.602;2023-04-15T08:38:05;10.40;95.80
35593;DHT22;64447;52.140;5.602;2023-04-15T08:40:39;10.40;95.20
35593;DHT22;64447;52.140;5.602;2023-04-15T08:43:07;10.60;95.20
35593;DHT22;64447;52.140;5.602;2023-04-15T08:45:34;10.50;95.20
35593;DHT22;64447;52.140;5.602;2023-04-15T08:48:04;10.50;94.90
35593;DHT22;64447;52.140;5.602;2023-04-15T08:50:31;10.50;94.50
35593;DHT22;64447;52.140;5.602;2023-04-15T08:52:58;10.60;94.30
35593;DHT22;64447;52.140;5.602;2023-04-15T08:55:29;10.60;94.60
35593;DHT22;64447;52.140;5.602;2023-04-15T09:01:19;10.70;93.90
35593;DHT22;64447;52.140;5.602;2023-04-15T09:03:48;10.80;94.30
35593;DHT22;64447;52.140;5.602;2023-04-15T09:06:16;10.80;94.20
35593;DHT22;64447;52.140;5.602;2023-04-15T09:08:42;10.90;94.10
35593;DHT22;64447;52.140;5.602;2023-04-15T09:11:07;10.80;93.70
35593;DHT22;64447;52.140;5.602;2023-04-15T09:13:33;10.90;94.50
35593;DHT22;64447;52.140;5.602;2023-04-15T09:16:01;11.00;93.70
35593;DHT22;64447;52.140;5.602;2023-04-15T09:18:32;11.20;93.10
35593;DHT22;64447;52.140;5.602;2023-04-15T09:21:10;11.20;93.60
35593;DHT22;64447;52.140;5.602;2023-04-15T09:23:38;11.40;93.20
35593;DHT22;64447;52.140;5.602;2023-04-15T09:26:05;11.40;93.20
35593;DHT22;64447;52.140;5.602;2023-04-15T09:28:31;11.50;92.60
35593;DHT22;64447;52.140;5.602;2023-04-15T09:30:58;11.60;92.80
35593;DHT22;64447;52.140;5.602;2023-04-15T09:33:25;11.80;92.00
35593;DHT22;64447;52.140;5.602;2023-04-15T09:36:04;11.80;91.90
35593;DHT22;64447;52.140;5.602;2023-04-15T09:38:31;11.90;91.10
35593;DHT22;64447;52.140;5.602;2023-04-15T09:40:57;11.90;91.70
35593;DHT22;64447;52.140;5.602;2023-04-15T09:46:45;12.20;91.40
35593;DHT22;64447;52.140;5.602;2023-04-15T09:49:12;12.20;90.40
35593;DHT22;64447;52.140;5.602;2023-04-15T09:51:37;12.20;90.10
35593;DHT22;64447;52.140;5.602;2023-04-15T09:54:03;12.20;87.70
35593;DHT22;64447;52.140;5.602;2023-04-15T09:56:37;12.20;88.80
35593;DHT22;64447;52.140;5.602;2023-04-15T09:59:06;12.20;89.20
35593;DHT22;64447;52.140;5.602;2023-04-15T10:01:31;12.30;89.30
35593;DHT22;64447;52.140;5.602;2023-04-15T10:03:57;12.20;89.20
35593;DHT22;64447;52.140;5.602;2023-04-15T10:06:25;12.10;89.00
35593;DHT22;64447;52.140;5.602;2023-04-15T10:08:51;12.10;90.00
35593;DHT22;64447;52.140;5.602;2023-04-15T10:11:18;12.10;89.70
35593;DHT22;64447;52.140;5.602;2023-04-15T10:13:45;12.20;90.10
35593;DHT22;64447;52.140;5.602;2023-04-15T10:16:15;12.30;90.40
35593;DHT22;64447;52.140;5.602;2023-04-15T10:18:50;12.50;91.30
35593;DHT22;64447;52.140;5.602;2023-04-15T10:21:18;12.60;90.30
35593;DHT22;64447;52.140;5.602;2023-04-15T10:23:45;12.70;90.20
35593;DHT22;64447;52.140;5.602;2023-04-15T10:26:12;13.00;88.70
35593;DHT22;64447;52.140;5.602;2023-04-15T10:32:02;12.60;89.10
35593;DHT22;64447;52.140;5.602;2023-04-15T10:34:28;12.70;90.30
35593;DHT22;64447;52.140;5.602;2023-04-15T10:37:03;12.70;89.30
35593;DHT22;64447;52.140;5.602;2023-04-15T10:42:17;12.70;88.40
35593;DHT22;64447;52.140;5.602;2023-04-15T10:44:48;12.80;89.80
35593;DHT22;64447;52.140;5.602;2023-04-15T10:47:15;12.90;88.70
35593;DHT22;64447;52.140;5.602;2023-04-15T10:49:50;13.10;89.20
35593;DHT22;64447;52.140;5.602;2023-04-15T10:52:21;13.10;87.80
35593;DHT22;64447;52.140;5.602;2023-04-15T10:54:47;13.20;87.40
35593;DHT22;64447;52.140;5.602;2023-04-15T10:59:59;13.30;86.20
35593;DHT22;64447;52.140;5.602;2023-04-15T11:02:41;13.40;86.50
35593;DHT22;64447;52.140;5.602;2023-04-15T11:05:08;13.50;86.90
35593;DHT22;64447;52.140;5.602;2023-04-15T11:09:59;13.20;83.50
35593;DHT22;64447;52.140;5.602;2023-04-15T11:12:35;13.20;83.90
35593;DHT22;64447;52.140;5.602;2023-04-15T11:17:51;13.30;85.70
35593;DHT22;64447;52.140;5.602;2023-04-15T11:20:17;13.20;83.00
35593;DHT22;64447;52.140;5.602;2023-04-15T11:22:48;13.20;83.70
35593;DHT22;64447;52.140;5.602;2023-04-15T11:25:40;13.00;83.00
35593;DHT22;64447;52.140;5.602;2023-04-15T11:28:06;13.00;84.10
35593;DHT22;64447;52.140;5.602;2023-04-15T11:30:36;12.90;85.10
35593;DHT22;64447;52.140;5.602;2023-04-15T11:33:05;12.80;83.80
35593;DHT22;64447;52.140;5.602;2023-04-15T11:35:37;12.80;83.20
35593;DHT22;64447;52.140;5.602;2023-04-15T11:38:08;13.00;82.30
35593;DHT22;64447;52.140;5.602;2023-04-15T11:40:35;13.10;83.10
35593;DHT22;64447;52.140;5.602;2023-04-15T11:43:13;13.30;82.20
35593;DHT22;64447;52.140;5.602;2023-04-15T11:45:51;13.40;83.00
35593;DHT22;64447;52.140;5.602;2023-04-15T11:48:21;13.60;83.60
35593;DHT22;64447;52.140;5.602;2023-04-15T11:50:53;13.70;83.20
35593;DHT22;64447;52.140;5.602;2023-04-15T11:53:19;13.60;82.60
35593;DHT22;64447;52.140;5.602;2023-04-15T11:55:52;13.50;81.50
35593;DHT22;64447;52.140;5.602;2023-04-15T11:58:23;13.40;83.40
35593;DHT22;64447;52.140;5.602;2023-04-15T12:03:27;13.40;85.20
35593;DHT22;64447;52.140;5.602;2023-04-15T12:06:16;13.50;85.70
35593;DHT22;64447;52.140;5.602;2023-04-15T12:08:59;13.50;82.30
35593;DHT22;64447;52.140;5.602;2023-04-15T12:13:53;13.40;84.90
35593;DHT22;64447;52.140;5.602;2023-04-15T12:16:19;13.40;84.70
35593;DHT22;64447;52.140;5.602;2023-04-15T12:18:56;13.40;84.40
35593;DHT22;64447;52.140;5.602;2023-04-15T12:21:24;13.30;83.20
35593;DHT22;64447;52.140;5.602;2023-04-15T12:23:52;13.30;84.30
35593;DHT22;64447;52.140;5.602;2023-04-15T12:26:25;13.40;83.40
35593;DHT22;64447;52.140;5.602;2023-04-15T12:28:59;13.40;83.40
35593;DHT22;64447;52.140;5.602;2023-04-15T12:31:25;13.30;82.60
35593;DHT22;64447;52.140;5.602;2023-04-15T12:33:54;13.30;82.40
35593;DHT22;64447;52.140;5.602;2023-04-15T12:36:20;13.40;82.40
35593;DHT22;64447;52.140;5.602;2023-04-15T12:38:45;13.30;82.50
35593;DHT22;64447;52.140;5.602;2023-04-15T12:41:11;13.30;83.30
35593;DHT22;64447;52.140;5.602;2023-04-15T12:43:36;13.30;83.10
35593;DHT22;64447;52.140;5.602;2023-04-15T12:46:02;13.30;84.30
35593;DHT22;64447;52.140;5.602;2023-04-15T12:48:29;13.40;83.20
35593;DHT22;64447;52.140;5.602;2023-04-15T12:50:55;13.40;83.00
35593;DHT22;64447;52.140;5.602;2023-04-15T12:53:20;13.30;82.30
35593;DHT22;64447;52.140;5.602;2023-04-15T12:55:46;13.30;84.00
35593;DHT22;64447;52.140;5.602;2023-04-15T12:58:12;13.30;84.00
35593;DHT22;64447;52.140;5.602;2023-04-15T13:00:38;13.40;83.70
35593;DHT22;64447;52.140;5.602;2023-04-15T13:03:03;13.40;81.90
35593;DHT22;64447;52.140;5.602;2023-04-15T13:05:29;13.30;83.70
35593;DHT22;64447;52.140;5.602;2023-04-15T13:07:55;13.20;84.70
35593;DHT22;64447;52.140;5.602;2023-04-15T13:10:21;13.20;84.80
35593;DHT22;64447;52.140;5.602;2023-04-15T13:12:48;13.30;85.00
35593;DHT22;64447;52.140;5.602;2023-04-15T13:15:14;13.20;83.70
35593;DHT22;64447;52.140;5.602;2023-04-15T13:17:43;13.10;84.20
35593;DHT22;64447;52.140;5.602;2023-04-15T13:20:09;13.10;86.30
35593;DHT22;64447;52.140;5.602;2023-04-15T13:22:35;13.20;86.50
35593;DHT22;64447;52.140;5.602;2023-04-15T13:25:00;13.20;86.70
35593;DHT22;64447;52.140;5.602;2023-04-15T13:27:26;13.30;86.40
35593;DHT22;64447;52.140;5.602;2023-04-15T13:29:52;13.30;85.60
35593;DHT22;64447;52.140;5.602;2023-04-15T13:32:18;13.20;85.00
35593;DHT22;64447;52.140;5.602;2023-04-15T13:34:43;13.50;85.90
35593;DHT22;64447;52.140;5.602;2023-04-15T13:37:09;13.10;86.00
35593;DHT22;64447;52.140;5.602;2023-04-15T13:39:35;12.90;87.30
35593;DHT22;64447;52.140;5.602;2023-04-15T13:42:00;12.80;87.70
35593;DHT22;64447;52.140;5.602;2023-04-15T13:47:49;12.60;89.20
35593;DHT22;64447;52.140;5.602;2023-04-15T13:50:14;12.40;90.20
35593;DHT22;64447;52.140;5.602;2023-04-15T13:52:40;12.30;90.80
35593;DHT22;64447;52.140;5.602;2023-04-15T13:55:06;12.30;91.20
35593;DHT22;64447;52.140;5.602;2023-04-15T13:57:32;12.40;90.90
35593;DHT22;64447;52.140;5.602;2023-04-15T13:59:57;12.50;90.40
35593;DHT22;64447;52.140;5.602;2023-04-15T14:02:23;12.40;90.10
35593;DHT22;64447;52.140;5.602;2023-04-15T14:04:49;12.40;90.20
35593;DHT22;64447;52.140;5.602;2023-04-15T14:07:14;12.50;90.00
35593;DHT22;64447;52.140;5.602;2023-04-15T14:09:41;12.40;90.10
35593;DHT22;64447;52.140;5.602;2023-04-15T14:12:07;12.40;90.80
35593;DHT22;64447;52.140;5.602;2023-04-15T14:17:55;12.30;91.20
35593;DHT22;64447;52.140;5.602;2023-04-15T14:20:21;12.10;91.20
35593;DHT22;64447;52.140;5.602;2023-04-15T14:22:47;11.90;91.60
35593;DHT22;64447;52.140;5.602;2023-04-15T14:25:12;11.90;91.80
35593;DHT22;64447;52.140;5.602;2023-04-15T14:27:38;11.90;91.60
35593;DHT22;64447;52.140;5.602;2023-04-15T14:30:04;11.90;91.20
35593;DHT22;64447;52.140;5.602;2023-04-15T14:32:30;12.00;91.60
35593;DHT22;64447;52.140;5.602;2023-04-15T14:34:55;12.00;91.60
35593;DHT22;64447;52.140;5.602;2023-04-15T14:37:21;11.90;92.30
35593;DHT22;64447;52.140;5.602;2023-04-15T14:39:47;11.80;92.30
35593;DHT22;64447;52.140;5.602;2023-04-15T14:42:12;11.90;92.30
35593;DHT22;64447;52.140;5.602;2023-04-15T14:48:00;11.90;92.70
35593;DHT22;64447;52.140;5.602;2023-04-15T14:50:29;11.80;92.70
35593;DHT22;64447;52.140;5.602;2023-04-15T14:52:54;11.90;92.90
35593;DHT22;64447;52.140;5.602;2023-04-15T14:55:20;11.80;93.10
35593;DHT22;64447;52.140;5.602;2023-04-15T14:57:45;11.70;93.30
35593;DHT22;64447;52.140;5.602;2023-04-15T15:00:11;11.60;93.80
35593;DHT22;64447;52.140;5.602;2023-04-15T15:02:37;11.40;93.90
35593;DHT22;64447;52.140;5.602;2023-04-15T15:05:03;11.30;93.80
35593;DHT22;64447;52.140;5.602;2023-04-15T15:07:29;11.40;93.90
35593;DHT22;64447;52.140;5.602;2023-04-15T15:09:55;11.20;93.70
35593;DHT22;64447;52.140;5.602;2023-04-15T15:12:21;11.10;94.00
35593;DHT22;64447;52.140;5.602;2023-04-15T15:18:11;10.90;94.60
35593;DHT22;64447;52.140;5.602;2023-04-15T15:20:36;10.90;95.00
35593;DHT22;64447;52.140;5.602;2023-04-15T15:23:02;10.90;94.90
35593;DHT22;64447;52.140;5.602;2023-04-15T15:25:28;10.90;94.70
35593;DHT22;64447;52.140;5.602;2023-04-15T15:27:53;11.30;95.40
35593;DHT22;64447;52.140;5.602;2023-04-15T15:30:19;11.00;94.90
35593;DHT22;64447;52.140;5.602;2023-04-15T15:32:45;11.00;94.80
35593;DHT22;64447;52.140;5.602;2023-04-15T15:35:10;11.00;94.70
35593;DHT22;64447;52.140;5.602;2023-04-15T15:37:36;11.00;95.00
35593;DHT22;64447;52.140;5.602;2023-04-15T15:40:05;10.80;94.70
35593;DHT22;64447;52.140;5.602;2023-04-15T15:42:32;10.80;95.30
35593;DHT22;64447;52.140;5.602;2023-04-15T15:48:21;10.50;95.80
35593;DHT22;64447;52.140;5.602;2023-04-15T15:50:47;10.30;96.30
35593;DHT22;64447;52.140;5.602;2023-04-15T15:53:12;10.40;96.90
35593;DHT22;64447;52.140;5.602;2023-04-15T15:55:42;10.40;97.00
35593;DHT22;64447;52.140;5.602;2023-04-15T15:58:08;10.40;97.00
35593;DHT22;64447;52.140;5.602;2023-04-15T16:00:33;10.30;96.80
35593;DHT22;64447;52.140;5.602;2023-04-15T16:02:59;10.20;97.10
35593;DHT22;64447;52.140;5.602;2023-04-15T16:05:24;10.10;97.30
35593;DHT22;64447;52.140;5.602;2023-04-15T16:07:50;10.10;97.60
35593;DHT22;64447;52.140;5.602;2023-04-15T16:10:16;10.00;98.00
35593;DHT22;64447;52.140;5.602;2023-04-15T16:12:41;9.90;98.50
35593;DHT22;64447;52.140;5.602;2023-04-15T16:18:28;9.80;99.00
35593;DHT22;64447;52.140;5.602;2023-04-15T16:20:54;9.40;99.00
35593;DHT22;64447;52.140;5.602;2023-04-15T16:23:20;9.80;99.10
35593;DHT22;64447;52.140;5.602;2023-04-15T16:25:45;10.10;99.30
35593;DHT22;64447;52.140;5.602;2023-04-15T16:28:11;10.20;98.80
35593;DHT22;64447;52.140;5.602;2023-04-15T16:30:38;10.20;98.70
35593;DHT22;64447;52.140;5.602;2023-04-15T16:33:05;10.00;97.90
35593;DHT22;64447;52.140;5.602;2023-04-15T16:35:31;10.20;98.40
35593;DHT22;64447;52.140;5.602;2023-04-15T16:37:57;10.00;99.20
35593;DHT22;64447;52.140;5.602;2023-04-15T16:40:23;9.90;99.00
35593;DHT22;64447;52.140;5.602;2023-04-15T16:42:49;10.30;99.70
35593;DHT22;64447;52.140;5.602;2023-04-15T16:48:37;9.70;99.80
35593;DHT22;64447;52.140;5.602;2023-04-15T16:51:02;9.70;99.90
35593;DHT22;64447;52.140;5.602;2023-04-15T16:53:28;9.70;99.80
35593;DHT22;64447;52.140;5.602;2023-04-15T16:55:53;9.80;99.80
35593;DHT22;64447;52.140;5.602;2023-04-15T16:58:19;9.60;99.90
35593;DHT22;64447;52.140;5.602;2023-04-15T17:04:07;9.60;99.80
35593;DHT22;64447;52.140;5.602;2023-04-15T17:06:32;9.50;99.80
35593;DHT22;64447;52.140;5.602;2023-04-15T17:08:58;9.60;99.90
35593;DHT22;64447;52.140;5.602;2023-04-15T17:11:23;9.60;99.90
35593;DHT22;64447;52.140;5.602;2023-04-15T17:13:49;9.60;99.90
35593;DHT22;64447;52.140;5.602;2023-04-15T17:16:15;9.40;99.90
35593;DHT22;64447;52.140;5.602;2023-04-15T17:18:41;9.40;99.90
35593;DHT22;64447;52.140;5.602;2023-04-15T17:21:06;9.30;99.90
35593;DHT22;64447;52.140;5.602;2023-04-15T17:23:32;9.40;99.90